Time;durP1;ratioP1;P1;durP2;ratioP2;P2;SDS_P1;SDS_P2;PMS_P1;PMS_P2;Temp;Humidity;BMP_temperature;BMP_pressure;BME280_temperature;BME280_humidity;BME280_pressure;Samples;Min_cycle;Max_cycle;Signal;HPM_P1;HPM_P2
2024/02/21 00:01:19;;;;;;;17.00;6.10;;;;;;;3.97;92.14;100493.10;102847;1264;97826;-81
2024/02/21 00:03:47;;;;;;;16.50;6.00;;;;;;;3.97;92.30;100490.35;102849;1259;139588;-81
2024/02/21 00:06:14;;;;;;;17.40;6.70;;;;;;;3.99;92.39;100493.10;102793;1263;107525;-81
2024/02/21 00:08:41;;;;;;;17.70;6.70;;;;;;;4.01;92.51;100490.85;102801;1258;138596;-81
2024/02/21 00:11:08;;;;;;;21.60;7.10;;;;;;;4.04;92.67;100493.60;102743;1259;107688;-82
2024/02/21 00:13:36;;;;;;;20.50;6.60;;;;;;;4.06;92.55;100493.60;102718;1259;97920;-82
2024/02/21 00:16:04;;;;;;;19.10;6.30;;;;;;;4.06;92.74;100489.98;102736;1259;138175;-82
2024/02/21 00:18:31;;;;;;;17.70;7.30;;;;;;;4.11;92.73;100492.38;102792;1258;107030;-82
2024/02/21 00:20:58;;;;;;;16.20;6.70;;;;;;;4.15;93.09;100488.08;102756;1259;139419;-82
2024/02/21 00:23:25;;;;;;;18.50;6.90;;;;;;;4.20;92.85;100481.17;102869;1259;106094;-82
2024/02/21 00:25:52;;;;;;;16.20;6.30;;;;;;;4.22;92.84;100482.89;102151;1261;1003104;-81
2024/02/21 00:28:19;;;;;;;16.00;6.30;;;;;;;4.26;93.03;100483.22;102788;1259;112821;-81
2024/02/21 00:30:47;;;;;;;16.40;6.40;;;;;;;4.29;92.94;100480.61;102752;1259;107592;-81
2024/02/21 00:33:15;;;;;;;16.00;6.90;;;;;;;4.31;93.00;100481.66;102753;1259;138445;-82
2024/02/21 00:35:42;;;;;;;17.10;6.10;;;;;;;4.34;92.99;100480.96;102757;1259;107907;-82
2024/02/21 00:38:09;;;;;;;15.90;6.40;;;;;;;4.38;93.02;100481.98;102714;1259;138957;-81
2024/02/21 00:40:36;;;;;;;19.50;6.70;;;;;;;4.40;93.03;100480.77;101958;1262;1002633;-81
2024/02/21 00:43:04;;;;;;;18.10;6.70;;;;;;;4.41;92.97;100479.38;102890;1259;108236;-81
2024/02/21 00:45:31;;;;;;;21.80;6.70;;;;;;;4.45;93.14;100476.61;102825;1262;138400;-81
2024/02/21 00:47:57;;;;;;;19.50;7.70;;;;;;;4.47;93.07;100477.47;102900;1259;107701;-81
2024/02/21 00:50:25;;;;;;;13.50;6.90;;;;;;;4.49;93.15;100471.96;102782;1259;139092;-81
2024/02/21 00:52:52;;;;;;;17.00;6.90;;;;;;;4.51;93.09;100466.96;102811;1262;110853;-81
2024/02/21 00:55:19;;;;;;;20.20;7.80;;;;;;;4.54;93.08;100467.98;102870;1259;107161;-81
2024/02/21 00:57:46;;;;;;;25.10;8.20;;;;;;;4.55;93.11;100464.19;102704;1263;138812;-81
2024/02/21 01:00:15;;;;;;;24.40;7.90;;;;;;;4.58;93.14;100466.59;102867;1259;108471;-80
2024/02/21 01:02:43;;;;;;;19.40;8.00;;;;;;;4.58;92.96;100467.96;103405;1262;138421;-80
2024/02/21 01:05:10;;;;;;;20.70;7.50;;;;;;;4.60;93.03;100465.71;102863;1259;110732;-80
2024/02/21 01:07:38;;;;;;;19.00;7.90;;;;;;;4.61;93.06;100461.40;102864;1259;107701;-80
2024/02/21 01:10:07;;;;;;;24.30;7.80;;;;;;;4.60;93.38;100457.44;102764;1259;138398;-79
2024/02/21 01:12:34;;;;;;;18.50;7.60;;;;;;;4.62;93.26;100456.39;102921;1260;105651;-80
2024/02/21 01:15:01;;;;;;;21.70;7.80;;;;;;;4.63;93.55;100451.40;103133;1259;138874;-81
2024/02/21 01:17:29;;;;;;;17.40;7.30;;;;;;;4.65;93.62;100451.90;102925;1259;111705;-80
2024/02/21 01:19:56;;;;;;;17.70;7.60;;;;;;;4.68;93.79;100447.95;102896;1259;108104;-79
2024/02/21 01:22:23;;;;;;;19.10;7.30;;;;;;;4.71;93.87;100445.17;102873;1263;97795;-80
2024/02/21 01:24:50;;;;;;;15.90;6.70;;;;;;;4.73;93.92;100443.78;102102;1265;1003010;-80
2024/02/21 01:27:18;;;;;;;16.20;7.00;;;;;;;4.75;94.04;100442.39;102768;1262;138550;-79
2024/02/21 01:29:46;;;;;;;19.20;6.90;;;;;;;4.77;94.19;100444.27;102991;1260;111010;-80
2024/02/21 01:32:13;;;;;;;19.40;7.30;;;;;;;4.78;94.22;100448.05;102776;1260;138786;-80
2024/02/21 01:34:40;;;;;;;18.00;6.80;;;;;;;4.79;94.35;100447.18;102904;1259;97782;-79
2024/02/21 01:37:08;;;;;;;17.80;7.30;;;;;;;4.79;94.37;100448.40;102695;1264;106992;-80
2024/02/21 01:39:36;;;;;;;17.20;7.20;;;;;;;4.80;94.67;100447.35;102763;1259;139503;-79
2024/02/21 01:42:03;;;;;;;22.50;7.70;;;;;;;4.81;94.80;100444.77;102850;1259;110841;-79
2024/02/21 01:44:31;;;;;;;18.20;7.50;;;;;;;4.80;95.03;100443.04;102705;1259;138848;-79
2024/02/21 01:46:58;;;;;;;22.50;7.60;;;;;;;4.81;95.11;100439.59;102827;1262;98319;-79
2024/02/21 01:49:27;;;;;;;20.70;7.90;;;;;;;4.82;95.11;100435.27;102795;1260;107691;-79
2024/02/21 01:51:55;;;;;;;17.60;7.90;;;;;;;4.83;95.23;100439.06;102563;1264;139752;-78
2024/02/21 01:54:23;;;;;;;22.90;8.20;;;;;;;4.84;95.36;100440.27;102826;1259;111277;-80
2024/02/21 01:56:50;;;;;;;18.30;7.80;;;;;;;4.84;95.33;100439.23;102725;1259;138727;-80
2024/02/21 01:59:18;;;;;;;23.90;8.60;;;;;;;4.87;95.40;100435.44;102875;1259;98321;-80
2024/02/21 02:01:47;;;;;;;19.00;8.70;;;;;;;4.89;95.50;100433.70;102758;1258;107879;-80
2024/02/21 02:04:14;;;;;;;24.70;8.80;;;;;;;4.91;95.48;100437.30;102690;1259;139478;-80
2024/02/21 02:06:42;;;;;;;20.10;8.60;;;;;;;4.92;95.31;100436.44;102873;1262;112312;-80
2024/02/21 02:09:09;;;;;;;17.30;8.20;;;;;;;4.92;95.20;100435.75;102681;1259;138654;-79
2024/02/21 02:11:37;;;;;;;22.00;9.50;;;;;;;4.93;95.34;100434.02;102822;1259;97679;-81
2024/02/21 02:14:04;;;;;;;22.90;9.00;;;;;;;4.94;95.46;100435.23;102786;1259;138518;-81
2024/02/21 02:16:31;;;;;;;20.90;9.00;;;;;;;4.94;95.36;100430.56;102837;1259;97789;-79
2024/02/21 02:18:58;;;;;;;17.30;8.60;;;;;;;4.93;95.44;100427.98;102920;1262;112467;-80
2024/02/21 02:21:31;;;;;;;23.80;9.10;;;;;;;4.95;95.73;100428.31;102632;1262;138405;-80
2024/02/21 02:23:58;;;;;;;20.90;9.40;;;;;;;4.97;95.57;100426.40;102870;1264;97816;-80
2024/02/21 02:26:25;;;;;;;19.00;9.00;;;;;;;4.99;95.42;100426.73;102762;1259;138308;-80
2024/02/21 02:28:52;;;;;;;16.70;8.50;;;;;;;5.00;95.61;100426.21;102913;1262;97812;-80
2024/02/21 02:31:20;;;;;;;21.60;9.00;;;;;;;5.00;95.53;100428.61;102870;1260;111689;-80
2024/02/21 02:33:47;;;;;;;17.00;8.80;;;;;;;4.99;95.52;100422.42;102682;1262;138352;-80
2024/02/21 02:36:16;;;;;;;19.50;8.60;;;;;;;5.02;95.59;100421.04;102782;1264;98314;-80
2024/02/21 02:38:43;;;;;;;19.00;8.80;;;;;;;5.04;95.54;100421.89;102805;1264;137675;-81
2024/02/21 02:41:10;;;;;;;19.00;8.70;;;;;;;5.02;95.44;100420.17;102786;1265;97788;-80
2024/02/21 02:43:40;;;;;;;22.50;9.00;;;;;;;5.01;95.34;100423.27;102824;1262;111337;-79
2024/02/21 02:46:07;;;;;;;19.90;8.60;;;;;;;5.02;95.77;100418.09;102707;1263;139378;-81
2024/02/21 02:48:34;;;;;;;19.70;8.60;;;;;;;5.02;95.83;100420.01;102898;1259;97817;-79
2024/02/21 02:51:02;;;;;;;16.40;8.70;;;;;;;5.04;95.62;100419.48;102778;1263;139421;-79
2024/02/21 02:53:29;;;;;;;23.60;8.90;;;;;;;5.06;95.94;100418.77;102824;1259;97804;-81
2024/02/21 02:55:56;;;;;;;23.80;8.80;;;;;;;5.05;95.69;100415.16;102930;1259;111121;-80
2024/02/21 02:58:24;;;;;;;24.40;9.20;;;;;;;5.05;95.65;100416.20;102786;1263;108281;-80
2024/02/21 03:00:51;;;;;;;21.00;9.40;;;;;;;5.03;95.64;100417.60;102846;1259;97711;-80
2024/02/21 03:03:18;;;;;;;20.30;9.80;;;;;;;5.00;95.69;100409.34;102704;1259;138389;-80
2024/02/21 03:05:46;;;;;;;23.40;10.70;;;;;;;5.01;95.80;100409.66;102908;1259;97808;-80
2024/02/21 03:08:14;;;;;;;21.00;9.50;;;;;;;5.01;95.84;100409.66;102866;1262;138547;-81
2024/02/21 03:10:42;;;;;;;22.40;9.70;;;;;;;5.01;95.89;100408.45;102918;1259;107759;-80
2024/02/21 03:13:10;;;;;;;20.90;9.30;;;;;;;5.01;95.90;100412.94;102754;1264;98318;-80
2024/02/21 03:15:37;;;;;;;20.80;9.40;;;;;;;5.00;95.88;100412.41;102766;1259;138831;-82
2024/02/21 03:18:04;;;;;;;17.50;9.20;;;;;;;5.00;95.94;100421.04;102101;1263;1003718;-82
2024/02/21 03:20:32;;;;;;;21.20;9.20;;;;;;;4.99;95.75;100418.80;102751;1263;138702;-82
2024/02/21 03:22:59;;;;;;;19.30;9.00;;;;;;;4.98;95.84;100415.03;102845;1263;106810;-82
2024/02/21 03:25:26;;;;;;;20.00;9.40;;;;;;;4.96;95.72;100416.77;102753;1265;98373;-82
2024/02/21 03:27:54;;;;;;;22.20;9.50;;;;;;;4.93;95.94;100415.59;102689;1259;138215;-82
2024/02/21 03:30:21;;;;;;;20.10;9.60;;;;;;;4.89;95.73;100412.86;102871;1259;97689;-82
2024/02/21 03:32:49;;;;;;;19.10;9.50;;;;;;;4.86;96.01;100407.20;102719;1259;138558;-82
2024/02/21 03:35:16;;;;;;;20.80;9.70;;;;;;;4.83;95.99;100407.70;102824;1259;107639;-82
2024/02/21 03:37:45;;;;;;;21.40;10.00;;;;;;;4.81;96.06;100403.59;102790;1262;98336;-82
2024/02/21 03:40:13;;;;;;;22.70;10.40;;;;;;;4.80;96.20;100403.23;102748;1262;138546;-82
2024/02/21 03:42:42;;;;;;;20.30;10.00;;;;;;;4.80;96.22;100402.39;103731;1259;97919;-81
2024/02/21 03:45:11;;;;;;;23.00;10.20;;;;;;;4.81;96.40;100400.31;102653;1259;138600;-80
2024/02/21 03:47:38;;;;;;;23.00;9.90;;;;;;;4.83;96.43;100404.44;103739;1258;108425;-80
2024/02/21 03:50:06;;;;;;;23.90;10.60;;;;;;;4.85;96.32;100408.91;102694;1257;138552;-79
2024/02/21 03:52:34;;;;;;;21.00;9.50;;;;;;;4.85;96.26;100409.61;103435;1259;108066;-80
2024/02/21 03:55:01;;;;;;;21.90;9.50;;;;;;;4.85;96.30;100416.67;102885;1259;97905;-80
2024/02/21 03:57:28;;;;;;;20.70;10.10;;;;;;;4.85;96.38;100412.20;102679;1258;138956;-82
2024/02/21 03:59:55;;;;;;;24.00;10.50;;;;;;;4.88;96.64;100409.25;102887;1265;107138;-81
2024/02/21 04:02:23;;;;;;;25.80;10.50;;;;;;;4.91;96.57;100405.44;102751;1257;138949;-81
2024/02/21 04:04:51;;;;;;;22.20;10.40;;;;;;;4.93;96.89;100404.55;102867;1259;106737;-80
2024/02/21 04:07:18;;;;;;;24.60;10.20;;;;;;;4.95;96.92;100398.69;102894;1262;97805;-81
2024/02/21 04:09:45;;;;;;;22.90;10.70;;;;;;;4.97;96.86;100399.86;102822;1259;138303;-80
2024/02/21 04:12:12;;;;;;;22.30;10.10;;;;;;;4.99;96.92;100395.20;102882;1262;109451;-81
2024/02/21 04:14:40;;;;;;;21.50;11.40;;;;;;;5.00;96.88;100396.56;102790;1259;138706;-80
2024/02/21 04:17:10;;;;;;;22.40;11.50;;;;;;;5.01;96.98;100398.62;102769;1262;107787;-80
2024/02/21 04:19:38;;;;;;;22.20;11.10;;;;;;;5.02;96.92;100396.05;102807;1262;97904;-80
2024/02/21 04:22:07;;;;;;;24.10;12.30;;;;;;;5.06;97.35;100390.86;102713;1264;138421;-80
2024/02/21 04:24:35;;;;;;;20.30;10.40;;;;;;;5.06;96.96;100388.44;102868;1263;108871;-81
2024/02/21 04:27:02;;;;;;;24.20;11.50;;;;;;;5.08;97.15;100386.19;102725;1263;142378;-81
2024/02/21 04:29:29;;;;;;;23.80;11.30;;;;;;;5.07;96.99;100382.92;102878;1259;107205;-81
2024/02/21 04:31:57;;;;;;;21.30;11.90;;;;;;;5.07;97.12;100380.85;102800;1263;98417;-81
2024/02/21 04:34:24;;;;;;;23.30;11.10;;;;;;;5.07;97.02;100377.40;102729;1264;138241;-79
2024/02/21 04:36:51;;;;;;;23.30;12.10;;;;;;;5.10;97.09;100375.83;102879;1259;107646;-80
2024/02/21 04:39:19;;;;;;;20.80;11.30;;;;;;;5.11;97.16;100377.36;102752;1259;138760;-80
2024/02/21 04:41:46;;;;;;;23.60;11.50;;;;;;;5.12;97.18;100373.39;102800;1261;106714;-79
2024/02/21 04:44:13;;;;;;;25.80;12.40;;;;;;;5.14;97.14;100375.27;102814;1262;139913;-78
2024/02/21 04:46:42;;;;;;;26.90;12.80;;;;;;;5.15;97.16;100377.15;102881;1262;111893;-79
2024/02/21 04:49:10;;;;;;;22.80;12.10;;;;;;;5.15;97.14;100379.92;102835;1263;108441;-81
2024/02/21 04:51:37;;;;;;;23.80;12.00;;;;;;;5.16;97.47;100379.21;103018;1260;138642;-79
2024/02/21 04:54:04;;;;;;;25.90;12.50;;;;;;;5.18;97.40;100375.58;102870;1260;106797;-80
2024/02/21 04:56:32;;;;;;;26.20;12.50;;;;;;;5.20;97.39;100375.92;102878;1259;138679;-79
2024/02/21 04:58:59;;;;;;;25.40;12.50;;;;;;;5.22;97.43;100377.80;102903;1263;111463;-81
2024/02/21 05:01:26;;;;;;;24.80;13.00;;;;;;;5.24;97.27;100372.45;102805;1262;106736;-81
2024/02/21 05:03:53;;;;;;;22.40;12.30;;;;;;;5.25;97.19;100376.58;102798;1259;138520;-81
2024/02/21 05:06:21;;;;;;;24.10;13.00;;;;;;;5.27;97.38;100367.06;102845;1258;108210;-81
2024/02/21 05:08:48;;;;;;;21.80;11.90;;;;;;;5.26;97.30;100367.08;102770;1259;138634;-80
2024/02/21 05:11:16;;;;;;;22.90;12.60;;;;;;;5.25;97.18;100367.61;102922;1261;110609;-80
2024/02/21 05:13:43;;;;;;;23.50;13.60;;;;;;;5.27;97.44;100371.20;102855;1263;105889;-80
2024/02/21 05:16:11;;;;;;;23.50;14.00;;;;;;;5.26;97.42;100365.00;102799;1260;138644;-78
2024/02/21 05:18:38;;;;;;;23.80;13.20;;;;;;;5.24;97.38;100365.71;102846;1259;107152;-80
2024/02/21 05:21:06;;;;;;;27.50;13.80;;;;;;;5.24;97.54;100366.75;102879;1260;139129;-81
2024/02/21 05:23:34;;;;;;;21.10;12.80;;;;;;;5.23;97.54;100370.73;102914;1259;112826;-80
2024/02/21 05:26:01;;;;;;;26.80;13.50;;;;;;;5.24;97.75;100370.38;102903;1264;107235;-80
2024/02/21 05:28:28;;;;;;;29.70;13.80;;;;;;;5.21;97.56;100369.88;102929;1259;98573;-80
2024/02/21 05:30:55;;;;;;;24.00;13.40;;;;;;;5.23;97.63;100370.91;102900;1258;107430;-80
2024/02/21 05:33:23;;;;;;;21.70;13.70;;;;;;;5.23;97.83;100368.84;102789;1262;138621;-80
2024/02/21 05:35:50;;;;;;;21.00;14.10;;;;;;;5.24;97.91;100368.83;102933;1263;111400;-80
2024/02/21 05:38:17;;;;;;;29.90;14.70;;;;;;;5.22;97.95;100366.60;102703;1264;139502;-81
2024/02/21 05:40:45;;;;;;;28.50;14.90;;;;;;;5.20;97.82;100362.80;102215;1262;1003618;-80
2024/02/21 05:43:13;;;;;;;30.20;14.20;;;;;;;5.21;98.03;100364.54;102911;1262;107488;-80
2024/02/21 05:45:40;;;;;;;28.10;14.30;;;;;;;5.20;98.00;100360.91;102755;1261;137427;-80
2024/02/21 05:48:08;;;;;;;28.20;14.20;;;;;;;5.17;98.22;100358.52;102925;1257;111294;-80
2024/02/21 05:50:36;;;;;;;31.90;14.40;;;;;;;5.14;98.17;100350.61;102702;1272;138847;-80
2024/02/21 05:53:03;;;;;;;26.50;14.70;;;;;;;5.13;98.07;100351.66;102756;1259;129686;-77
2024/02/21 05:55:31;;;;;;;29.50;14.70;;;;;;;5.10;98.34;100346.88;102874;1261;107429;-81
2024/02/21 05:57:58;;;;;;;32.60;16.10;;;;;;;5.08;98.39;100352.40;102810;1261;139287;-81
2024/02/21 06:00:25;;;;;;;30.60;15.50;;;;;;;5.08;98.65;100352.23;102911;1262;111363;-80
2024/02/21 06:02:52;;;;;;;26.50;15.50;;;;;;;5.14;98.89;100353.20;102703;1263;138524;-79
2024/02/21 06:05:20;;;;;;;28.60;16.20;;;;;;;5.20;98.80;100352.81;102904;1263;97823;-81
2024/02/21 06:07:47;;;;;;;30.90;16.40;;;;;;;5.23;98.92;100353.14;102804;1263;107218;-81
2024/02/21 06:10:14;;;;;;;31.60;15.30;;;;;;;5.27;98.95;100352.77;102788;1261;138663;-82
2024/02/21 06:12:42;;;;;;;28.50;15.40;;;;;;;5.29;98.68;100352.05;102880;1263;110757;-81
2024/02/21 06:15:11;;;;;;;30.40;15.90;;;;;;;5.32;98.51;100354.94;102715;1263;138633;-82
2024/02/21 06:17:38;;;;;;;27.50;15.40;;;;;;;5.35;98.66;100347.84;103134;1260;97706;-82
2024/02/21 06:20:07;;;;;;;31.10;15.50;;;;;;;5.36;98.67;100348.70;102768;1261;106845;-83
2024/02/21 06:22:34;;;;;;;31.70;15.70;;;;;;;5.35;98.50;100348.36;103154;1263;97814;-81
2024/02/21 06:25:02;;;;;;;26.70;15.40;;;;;;;5.36;98.52;100347.66;102841;1260;110985;-83
2024/02/21 06:27:29;;;;;;;34.40;16.30;;;;;;;5.38;98.54;100345.24;101926;1265;1003168;-82
2024/02/21 06:29:56;;;;;;;32.00;17.20;;;;;;;5.43;98.60;100348.99;102819;1260;97813;-80
2024/02/21 06:32:24;;;;;;;31.60;16.70;;;;;;;5.50;98.72;100353.23;102645;1263;138645;-82
2024/02/21 06:34:51;;;;;;;35.80;17.40;;;;;;;5.54;98.53;100361.46;102752;1261;98473;-82
2024/02/21 06:37:18;;;;;;;37.70;18.20;;;;;;;5.56;98.42;100359.20;102875;1261;110816;-82
2024/02/21 06:39:46;;;;;;;33.40;16.60;;;;;;;5.59;98.24;100355.92;102724;1263;138837;-83
2024/02/21 06:42:13;;;;;;;32.70;17.60;;;;;;;5.60;98.31;100354.01;102846;1265;98356;-83
2024/02/21 06:44:41;;;;;;;32.90;17.50;;;;;;;5.61;98.26;100359.85;102724;1259;138532;-83
2024/02/21 06:47:08;;;;;;;33.40;17.90;;;;;;;5.64;98.22;100361.55;102867;1260;97718;-83
2024/02/21 06:49:36;;;;;;;36.30;18.20;;;;;;;5.65;98.29;100360.49;102834;1263;110422;-83
2024/02/21 06:52:06;;;;;;;32.60;17.60;;;;;;;5.67;98.09;100358.58;102687;1263;140344;-83
2024/02/21 06:54:34;;;;;;;31.80;17.00;;;;;;;5.66;97.99;100365.31;102857;1261;98363;-82
2024/02/21 06:57:01;;;;;;;35.90;17.40;;;;;;;5.65;97.84;100366.36;102695;1263;138463;-83
2024/02/21 06:59:29;;;;;;;38.50;17.90;;;;;;;5.65;97.95;100365.49;102717;1264;97817;-83
2024/02/21 07:01:57;;;;;;;31.70;17.00;;;;;;;5.66;98.01;100365.84;102798;1260;110197;-79
2024/02/21 07:04:24;;;;;;;35.40;17.70;;;;;;;5.66;98.03;100364.98;102668;1263;138404;-78
2024/02/21 07:06:51;;;;;;;33.00;18.30;;;;;;;5.68;97.98;100363.38;102803;1263;98369;-76
2024/02/21 07:09:19;;;;;;;33.70;17.00;;;;;;;5.70;97.93;100357.84;102729;1259;138293;-82
2024/02/21 07:11:46;;;;;;;32.70;16.70;;;;;;;5.73;98.06;100360.05;102865;1262;97792;-81
2024/02/21 07:14:15;;;;;;;37.90;18.30;;;;;;;5.75;97.75;100363.50;102714;1272;139060;-79
2024/02/21 07:16:42;;;;;;;37.50;17.50;;;;;;;5.77;97.75;100365.20;102840;1261;107203;-80
2024/02/21 07:19:09;;;;;;;40.20;18.30;;;;;;;5.78;97.74;100359.52;102798;1265;97810;-83
2024/02/21 07:21:41;;;;;;;37.90;17.40;;;;;;;5.80;97.78;100360.70;102666;1260;138564;-81
2024/02/21 07:24:08;;;;;;;38.80;17.70;;;;;;;5.78;97.43;100357.42;102826;1263;97806;-81
2024/02/21 07:26:36;;;;;;;39.50;17.60;;;;;;;5.78;97.60;100360.72;102696;1265;138657;-81
2024/02/21 07:29:03;;;;;;;39.70;18.30;;;;;;;5.79;97.55;100355.53;102657;1265;109241;-72
2024/02/21 07:31:31;;;;;;;36.70;18.10;;;;;;;5.82;97.77;100349.80;102753;1259;97905;-69
2024/02/21 07:33:58;;;;;;;36.70;17.90;;;;;;;5.86;97.81;100348.19;102555;1265;138487;-70
2024/02/21 07:36:31;;;;;;;36.30;17.60;;;;;;;5.89;97.69;100345.91;102608;1259;97869;-72
2024/02/21 07:38:58;;;;;;;39.00;18.10;;;;;;;5.89;97.54;100340.39;102708;1263;138537;-71
2024/02/21 07:41:25;;;;;;;37.40;18.10;;;;;;;5.91;97.47;100335.73;102801;1263;107283;-71
2024/02/21 07:43:53;;;;;;;37.00;17.20;;;;;;;5.93;97.54;100333.65;102813;1264;97925;-72
2024/02/21 07:46:21;;;;;;;40.10;17.00;;;;;;;5.96;97.48;100327.75;102577;1263;138372;-72
2024/02/21 07:48:49;;;;;;;41.20;17.00;;;;;;;6.02;97.54;100320.93;102580;1266;97915;-72
2024/02/21 07:51:18;;;;;;;39.70;17.20;;;;;;;6.11;97.40;100320.48;102604;1261;138511;-73
2024/02/21 07:53:46;;;;;;;42.90;17.40;;;;;;;6.21;97.20;100317.08;101964;1261;1003491;-72
2024/02/21 07:56:13;;;;;;;44.20;17.70;;;;;;;6.29;96.88;100314.71;102688;1264;139909;-71
2024/02/21 07:58:41;;;;;;;39.70;16.70;;;;;;;6.35;96.59;100308.24;102792;1264;108449;-74
2024/02/21 08:01:08;;;;;;;38.30;17.00;;;;;;;6.43;96.55;100307.77;102757;1260;98272;-74
2024/02/21 08:03:35;;;;;;;34.20;16.80;;;;;;;6.52;96.24;100300.40;102633;1264;139102;-68
2024/02/21 08:06:04;;;;;;;36.20;16.90;;;;;;;6.58;95.82;100296.15;102744;1260;108990;-72
2024/02/21 08:08:31;;;;;;;32.30;16.40;;;;;;;6.65;95.64;100294.16;102667;1261;139306;-72
2024/02/21 08:10:59;;;;;;;37.70;17.20;;;;;;;6.70;95.27;100294.96;102674;1263;107334;-73
2024/02/21 08:13:28;;;;;;;32.80;15.60;;;;;;;6.79;95.42;100292.04;102575;1263;97909;-71
2024/02/21 08:15:57;;;;;;;26.00;14.80;;;;;;;6.91;95.20;100288.73;102549;1264;138933;-71
2024/02/21 08:18:24;;;;;;;32.00;15.00;;;;;;;7.00;94.54;100288.92;102719;1260;107218;-70
2024/02/21 08:20:52;;;;;;;26.20;14.40;;;;;;;7.10;94.64;100291.69;102671;1260;139063;-72
2024/02/21 08:23:24;;;;;;;30.20;13.50;;;;;;;7.22;94.29;100288.54;102800;1262;107219;-72
2024/02/21 08:25:51;;;;;;;27.00;13.70;;;;;;;7.25;93.56;100284.51;102706;1263;97808;-70
2024/02/21 08:28:18;;;;;;;27.60;14.00;;;;;;;7.27;93.29;100285.85;102608;1260;138158;-72
2024/02/21 08:30:47;;;;;;;29.60;14.40;;;;;;;7.31;92.95;100283.02;102757;1260;108372;-70
2024/02/21 08:33:16;;;;;;;34.70;16.60;;;;;;;7.27;92.57;100283.94;102564;1260;138516;-70
2024/02/21 08:35:44;;;;;;;37.90;16.90;;;;;;;7.25;92.68;100286.59;102829;1263;108504;-70
2024/02/21 08:38:11;;;;;;;34.30;16.80;;;;;;;7.23;92.54;100288.01;102644;1263;138122;-69
2024/02/21 08:40:41;;;;;;;34.10;16.50;;;;;;;7.24;92.96;100282.11;103673;1260;112016;-71
2024/02/21 08:43:08;;;;;;;45.30;16.20;;;;;;;7.30;93.14;100279.58;102700;1264;106920;-71
2024/02/21 08:45:36;;;;;;;37.30;15.60;;;;;;;7.36;93.04;100277.92;102636;1261;138867;-70
2024/02/21 08:48:03;;;;;;;30.90;15.00;;;;;;;7.44;92.74;100274.99;102757;1261;107854;-69
2024/02/21 08:50:31;;;;;;;34.40;16.00;;;;;;;7.58;92.45;100272.65;103012;1263;139456;-69
2024/02/21 08:52:59;;;;;;;38.80;15.80;;;;;;;7.73;92.20;100271.15;103153;1263;110764;-70
2024/02/21 08:55:27;;;;;;;31.80;17.00;;;;;;;7.84;92.09;100270.56;102869;1260;108429;-70
2024/02/21 08:57:54;;;;;;;33.40;16.30;;;;;;;7.87;91.41;100267.20;102766;1261;138236;-71
2024/02/21 09:00:26;;;;;;;37.60;16.60;;;;;;;7.90;91.64;100265.60;102972;1261;107500;-71
2024/02/21 09:02:55;;;;;;;29.00;15.80;;;;;;;7.95;91.23;100262.91;102590;1264;138852;-71
2024/02/21 09:05:24;;;;;;;32.90;15.40;;;;;;;7.94;90.90;100255.31;102823;1261;111352;-72
2024/02/21 09:07:52;;;;;;;36.10;17.10;;;;;;;7.91;90.91;100258.14;102621;1263;107359;-71
2024/02/21 09:10:21;;;;;;;38.50;17.50;;;;;;;7.91;90.84;100261.45;102702;1261;139518;-71
2024/02/21 09:12:48;;;;;;;31.40;15.60;;;;;;;7.88;90.79;100260.25;102656;1264;108079;-72
2024/02/21 09:15:16;;;;;;;32.70;16.30;;;;;;;7.85;90.66;100255.47;102644;1261;139133;-70
2024/02/21 09:17:43;;;;;;;44.60;17.20;;;;;;;7.87;91.12;100253.17;102616;1265;110581;-71
2024/02/21 09:20:16;;;;;;;33.10;14.80;;;;;;;7.89;90.88;100254.70;102585;1261;138867;-72
2024/02/21 09:22:43;;;;;;;33.70;15.40;;;;;;;7.86;90.82;100255.80;104224;1259;96392;-71
2024/02/21 09:25:12;;;;;;;32.20;14.90;;;;;;;7.81;90.85;100251.59;104184;1261;107669;-71
2024/02/21 09:27:39;;;;;;;33.90;14.60;;;;;;;7.75;90.79;100255.54;104075;1261;138891;-70
2024/02/21 09:30:08;;;;;;;30.80;14.10;;;;;;;7.70;90.95;100255.62;104219;1260;110371;-70
2024/02/21 09:32:36;;;;;;;26.30;13.40;;;;;;;7.67;91.08;100257.94;103829;1261;139074;-70
2024/02/21 09:35:05;;;;;;;27.80;12.90;;;;;;;7.62;91.15;100252.67;102878;1263;97853;-71
2024/02/21 09:37:32;;;;;;;27.60;13.00;;;;;;;7.58;91.36;100253.63;103714;1263;108067;-73
2024/02/21 09:39:59;;;;;;;26.20;11.70;;;;;;;7.62;91.72;100254.75;102721;1263;139300;-77
2024/02/21 09:42:37;;;;;;;28.40;11.20;;;;;;;7.68;91.64;100256.19;102756;1260;112177;-76
2024/02/21 09:45:08;;;;;;;28.20;11.50;;;;;;;7.69;91.34;100251.14;102683;1264;138905;-78
2024/02/21 09:47:49;;;;;;;28.80;11.00;;;;;;;7.77;91.54;100252.19;102852;1260;97703;-77
2024/02/21 09:50:18;;;;;;;25.70;11.50;;;;;;;7.80;91.20;100245.04;102702;1260;139645;-76
2024/02/21 09:52:46;;;;;;;26.10;11.40;;;;;;;7.84;91.01;100243.04;102812;1264;97816;-74
2024/02/21 09:55:14;;;;;;;24.20;10.60;;;;;;;7.79;90.48;100238.14;102827;1260;110483;-74
2024/02/21 09:57:42;;;;;;;21.20;10.00;;;;;;;7.73;90.49;100238.43;102654;1260;138803;-72
2024/02/21 10:00:12;;;;;;;23.40;10.80;;;;;;;7.72;90.64;100235.51;102838;1259;98336;-71
2024/02/21 10:02:41;;;;;;;25.60;9.90;;;;;;;7.72;90.60;100232.05;102939;1261;139314;-72
2024/02/21 10:05:09;;;;;;;26.50;10.90;;;;;;;7.76;91.03;100233.70;102827;1260;97809;-73
2024/02/21 10:07:38;;;;;;;26.80;10.90;;;;;;;7.85;91.17;100228.81;103920;1260;111355;-71
2024/02/21 10:10:07;;;;;;;23.10;10.90;;;;;;;7.90;90.63;100228.55;102739;1259;139327;-71
2024/02/21 10:12:34;;;;;;;25.10;10.10;;;;;;;7.91;90.74;100222.48;103152;1259;97903;-73
2024/02/21 10:15:05;;;;;;;25.90;10.10;;;;;;;7.92;90.01;100224.20;102624;1259;138850;-73
2024/02/21 10:17:33;;;;;;;26.80;10.80;;;;;;;7.85;89.98;100222.25;102739;1261;95894;-72
2024/02/21 10:20:10;;;;;;;21.90;10.10;;;;;;;7.86;90.30;100222.73;103457;1263;111192;-70
2024/02/21 10:22:39;;;;;;;23.90;10.30;;;;;;;7.87;90.10;100214.57;103034;1263;106727;-72
2024/02/21 10:25:12;;;;;;;23.90;10.40;;;;;;;7.90;90.17;100208.64;103048;1259;98354;-73
2024/02/21 10:27:39;;;;;;;25.90;10.70;;;;;;;7.97;90.43;100203.98;102887;1260;138873;-73
2024/02/21 10:30:15;;;;;;;25.30;10.50;;;;;;;8.04;90.52;100202.95;103382;1263;97816;-71
2024/02/21 10:32:52;;;;;;;26.20;11.00;;;;;;;8.07;89.87;100205.14;103163;1260;139370;-69
2024/02/21 10:35:29;;;;;;;27.90;11.60;;;;;;;8.10;89.95;100205.27;102805;1261;108948;-70
2024/02/21 10:37:57;;;;;;;27.10;11.40;;;;;;;8.13;89.82;100206.23;103178;1259;97749;-71
2024/02/21 10:40:26;;;;;;;30.50;12.60;;;;;;;8.14;89.69;100204.65;102699;1259;138977;-69
2024/02/21 10:42:58;;;;;;;27.90;11.30;;;;;;;8.12;89.52;100202.44;102898;1259;97791;-70
2024/02/21 10:45:32;;;;;;;32.30;12.70;;;;;;;8.13;89.63;100194.61;103264;1263;139841;-68
2024/02/21 10:48:10;;;;;;;24.40;11.70;;;;;;;8.16;89.67;100195.58;103738;1259;108396;-71
2024/02/21 10:50:43;;;;;;;32.60;11.90;;;;;;;8.23;89.72;100192.64;102971;1263;138988;-70
2024/02/21 10:53:18;;;;;;;30.60;12.60;;;;;;;8.26;89.52;100184.97;102763;1263;109357;-67
2024/02/21 10:55:57;;;;;;;28.00;13.30;;;;;;;8.27;89.36;100184.95;102841;1260;97821;-67
2024/02/21 10:58:27;;;;;;;28.60;12.20;;;;;;;8.28;88.80;100184.77;103131;1260;138738;-70
2024/02/21 11:00:55;;;;;;;27.30;14.30;;;;;;;8.27;88.56;100179.06;102903;1259;107325;-69
2024/02/21 11:03:23;;;;;;;30.90;13.50;;;;;;;8.23;88.51;100173.94;102909;1259;1002760;-70
2024/02/21 11:05:52;;;;;;;30.60;12.90;;;;;;;8.21;88.55;100168.62;102857;1261;107460;-70
2024/02/21 11:08:20;;;;;;;29.70;12.80;;;;;;;8.19;88.51;100166.41;102961;1262;140109;-70